Terminal Aerodrome Forecast
Issued by NWS North Platte, NE

Home | Current Version | Previous Version | Text Only | Print | Product List | Glossary Off
Versions: 1 2 3 4 5 6 7 8 9 10 11 12 13 14 15

000
FTUS43 KLBF 301139
TAFVTN
TAF
KVTN 301139Z 3012/0112 03016G24KT 6SM -RA BR OVC015
      TEMPO 3012/3016 3SM -RA BR OVC009
     FM301600 02016G24KT 4SM -RA BR OVC007
     FM302300 35013KT 4SM -RA BR OVC010
     FM010600 36009KT P6SM -RA OVC015
     FM011000 35010KT P6SM OVC015=

USA.gov is the U.S. government's official web portal to all federal, state and local government web resources and services.